createdAt,value
2018-03-28T00:00:23.479Z,100619.03
2018-03-28T00:02:49.495Z,100618.80
2018-03-28T00:05:15.462Z,100613.35
2018-03-28T00:07:47.753Z,100614.16
2018-03-28T00:10:20.751Z,100614.94
2018-03-28T00:12:46.737Z,100606.52
2018-03-28T00:15:12.710Z,100602.71
2018-03-28T00:17:38.680Z,100595.98
2018-03-28T00:20:04.647Z,100595.63
2018-03-28T00:22:30.618Z,100591.59
2018-03-28T00:24:56.595Z,100588.41
2018-03-28T00:27:22.610Z,100588.27
2018-03-28T00:29:48.574Z,100585.13
2018-03-28T00:32:14.544Z,100579.03
2018-03-28T00:34:40.519Z,100576.00
2018-03-28T00:37:06.515Z,100564.91
2018-03-28T00:39:32.521Z,100562.92
2018-03-28T00:41:58.490Z,100564.92
2018-03-28T00:44:24.458Z,100563.25
2018-03-28T00:46:50.426Z,100555.70
2018-03-28T00:49:16.394Z,100562.13
2018-03-28T00:51:42.371Z,100561.23
2018-03-28T00:54:08.343Z,100559.88
2018-03-28T00:56:34.309Z,100557.77
2018-03-28T00:59:00.326Z,100549.80
2018-03-28T01:01:26.338Z,100549.58
2018-03-28T01:03:52.313Z,100549.06
2018-03-28T01:06:19.137Z,100553.36
2018-03-28T01:08:45.182Z,100547.05
2018-03-28T01:11:11.214Z,100544.14
2018-03-28T01:13:37.186Z,100542.91
2018-03-28T01:16:03.190Z,100539.09
2018-03-28T01:18:30.010Z,100533.96
2018-03-28T01:20:56.079Z,100529.75
2018-03-28T01:23:22.823Z,100528.55
2018-03-28T01:25:49.589Z,100528.01
2018-03-28T01:28:15.902Z,100520.59
2018-03-28T01:30:41.869Z,100512.50
2018-03-28T01:33:08.633Z,100514.64
2018-03-28T01:35:34.595Z,100516.38
2018-03-28T01:38:01.583Z,100514.59
2018-03-28T01:40:27.550Z,100506.81
2018-03-28T01:42:54.426Z,100506.94
2018-03-28T01:45:21.178Z,100506.84
2018-03-28T01:47:47.142Z,100502.87
2018-03-28T01:50:14.223Z,100503.07
2018-03-28T01:52:41.102Z,100500.98
2018-03-28T01:55:07.106Z,100500.28
2018-03-28T01:57:33.933Z,100495.81
2018-03-28T01:59:59.997Z,100491.16
2018-03-28T02:02:26.808Z,100495.39
2018-03-28T02:04:52.770Z,100492.20
2018-03-28T02:07:19.614Z,100485.97
2018-03-28T02:09:46.302Z,100485.97
2018-03-28T02:12:13.081Z,100480.89
2018-03-28T02:14:39.105Z,100471.33
2018-03-28T02:17:05.919Z,100462.20
2018-03-28T02:19:32.865Z,100456.86
2018-03-28T02:21:59.749Z,100449.27
2018-03-28T02:24:25.833Z,100452.30
2018-03-28T02:26:53.136Z,100450.55
2018-03-28T02:29:20.070Z,100445.17
2018-03-28T02:31:46.862Z,100443.78
2018-03-28T02:34:13.671Z,100434.09
2018-03-28T02:36:39.631Z,100440.73
2018-03-28T02:39:05.644Z,100438.40
2018-03-28T02:41:32.450Z,100431.31
2018-03-28T02:43:59.187Z,100433.73
2018-03-28T02:46:26.062Z,100423.49
2018-03-28T02:48:52.068Z,100433.59
2018-03-28T02:51:18.085Z,100432.22
2018-03-28T02:53:44.999Z,100426.67
2018-03-28T02:56:10.963Z,100418.49
2018-03-28T02:58:36.926Z,100420.72
2018-03-28T03:01:03.853Z,100416.08
2018-03-28T03:03:29.865Z,100412.05
2018-03-28T03:05:56.822Z,100412.20
2018-03-28T03:08:23.850Z,100413.81
2018-03-28T03:10:49.844Z,100416.69
2018-03-28T03:13:16.856Z,100412.01
2018-03-28T03:15:42.817Z,100408.73
2018-03-28T03:18:08.775Z,100408.75
2018-03-28T03:20:35.654Z,100408.62
2018-03-28T03:23:02.505Z,100411.38
2018-03-28T03:25:28.509Z,100409.37
2018-03-28T03:27:54.475Z,100410.06
2018-03-28T03:30:20.446Z,100404.86
2018-03-28T03:32:46.421Z,100402.87
2018-03-28T03:35:12.382Z,100404.33
2018-03-28T03:37:39.289Z,100408.67
2018-03-28T03:40:06.147Z,100406.45
2018-03-28T03:42:32.171Z,100410.46
2018-03-28T03:44:58.129Z,100408.62
2018-03-28T03:47:24.090Z,100405.22
2018-03-28T03:49:50.051Z,100406.61
2018-03-28T03:52:16.034Z,100408.90
2018-03-28T03:54:42.001Z,100404.80
2018-03-28T03:57:08.010Z,100405.82
2018-03-28T03:59:33.974Z,100403.89
2018-03-28T04:01:59.940Z,100402.50
2018-03-28T04:04:25.955Z,100405.00
2018-03-28T04:06:51.924Z,100400.59
2018-03-28T04:09:17.932Z,100397.11
2018-03-28T04:11:43.895Z,100392.45
2018-03-28T04:14:09.902Z,100399.41
2018-03-28T04:16:35.969Z,100395.98
2018-03-28T04:19:01.935Z,100388.39
2018-03-28T04:21:28.021Z,100395.03
2018-03-28T04:23:53.982Z,100393.59
2018-03-28T04:26:19.946Z,100391.50
2018-03-28T04:28:45.908Z,100389.29
2018-03-28T04:31:11.873Z,100384.86
2018-03-28T04:33:37.836Z,100386.16
2018-03-28T04:36:03.798Z,100376.13
2018-03-28T04:38:29.776Z,100376.07
2018-03-28T04:40:55.768Z,100379.93
2018-03-28T04:43:21.769Z,100377.72
2018-03-28T04:45:47.730Z,100375.59
2018-03-28T04:48:13.699Z,100375.17
2018-03-28T04:50:39.717Z,100372.19
2018-03-28T04:53:06.589Z,100375.64
2018-03-28T04:55:33.503Z,100376.90
2018-03-28T04:57:59.474Z,100371.77
2018-03-28T05:00:25.484Z,100370.05
2018-03-28T05:02:51.532Z,100367.89
2018-03-28T05:05:17.534Z,100371.08
2018-03-28T05:07:43.546Z,100373.99
2018-03-28T05:10:09.519Z,100366.70
2018-03-28T05:12:35.522Z,100369.56
2018-03-28T05:15:02.339Z,100363.59
2018-03-28T05:17:29.283Z,100367.41
2018-03-28T05:19:55.282Z,100368.77
2018-03-28T05:22:21.249Z,100366.42
2018-03-28T05:24:48.275Z,100362.77
2018-03-28T05:27:15.178Z,100381.99
2018-03-28T05:29:42.168Z,100365.02
2018-03-28T05:32:09.187Z,100366.88
2018-03-28T05:34:36.134Z,100374.59
2018-03-28T05:37:02.142Z,100371.63
2018-03-28T05:39:28.159Z,100381.60
2018-03-28T05:41:54.387Z,100379.36
2018-03-28T05:44:21.364Z,100381.81
2018-03-28T05:46:47.339Z,100380.08
2018-03-28T05:49:14.266Z,100390.25
2018-03-28T05:51:40.337Z,100384.21
2018-03-28T05:54:07.346Z,100381.60
2018-03-28T05:56:33.313Z,100382.78
2018-03-28T05:59:00.257Z,100375.50
2018-03-28T06:01:26.302Z,100379.08
2018-03-28T06:03:53.243Z,100379.72
2018-03-28T06:06:19.262Z,100376.11
2018-03-28T06:08:46.228Z,100384.91
2018-03-28T06:11:12.931Z,100379.68
2018-03-28T06:13:39.837Z,100382.23
2018-03-28T06:16:06.965Z,100381.67
2018-03-28T06:18:33.733Z,100373.23
2018-03-28T06:21:00.735Z,100372.73
2018-03-28T06:23:26.765Z,100365.05
2018-03-28T06:25:53.743Z,100368.05
2018-03-28T06:28:19.725Z,100362.34
2018-03-28T06:30:45.738Z,100355.48
2018-03-28T06:33:12.514Z,100355.41
2018-03-28T06:35:39.326Z,100347.61
2018-03-28T06:38:06.327Z,100343.50
2018-03-28T06:40:32.561Z,100338.41
2018-03-28T06:42:58.527Z,100338.53
2018-03-28T06:45:25.986Z,100338.86
2018-03-28T06:47:51.951Z,100336.87
2018-03-28T06:50:18.897Z,100335.84
2018-03-28T06:52:45.847Z,100327.08
2018-03-28T06:55:12.814Z,100325.09
2018-03-28T06:57:39.777Z,100321.08
2018-03-28T07:00:06.705Z,100320.15
2018-03-28T07:02:33.661Z,100315.66
2018-03-28T07:05:00.461Z,100318.52
2018-03-28T07:07:27.380Z,100326.14
2018-03-28T07:09:54.270Z,100335.91
2018-03-28T07:12:20.290Z,100346.71
2018-03-28T07:14:46.330Z,100345.72
2018-03-28T07:17:12.323Z,100350.80
2018-03-28T07:19:39.263Z,100349.06
2018-03-28T07:22:06.217Z,100347.45
2018-03-28T07:24:33.103Z,100341.58
2018-03-28T07:26:59.106Z,100332.56
2018-03-28T07:29:25.067Z,100335.01
2018-03-28T07:31:51.037Z,100333.75
2018-03-28T07:34:18.011Z,100320.72
2018-03-28T07:36:44.940Z,100322.13
2018-03-28T07:39:10.902Z,100330.28
2018-03-28T07:41:36.872Z,100327.30
2018-03-28T07:44:03.817Z,100329.73
2018-03-28T07:46:30.637Z,100335.68
2018-03-28T07:48:56.601Z,100335.25
2018-03-28T07:51:22.570Z,100327.23
2018-03-28T07:53:50.297Z,100329.13
2018-03-28T07:56:17.283Z,100319.76
2018-03-28T07:58:44.894Z,100315.97
2018-03-28T08:01:10.900Z,100311.48
2018-03-28T08:03:36.914Z,100302.39
2018-03-28T08:06:02.919Z,100296.78
2018-03-28T08:08:32.350Z,100295.41
2018-03-28T08:10:58.342Z,100291.71
2018-03-28T08:13:24.339Z,100291.52
2018-03-28T08:15:50.302Z,100302.72
2018-03-28T08:18:16.373Z,100300.67
2018-03-28T08:20:42.409Z,100309.20
2018-03-28T08:23:21.052Z,100304.55
2018-03-28T08:25:57.625Z,100303.42
2018-03-28T08:28:34.584Z,100300.12
2018-03-28T08:31:22.254Z,100300.54
2018-03-28T08:34:05.269Z,100301.28
2018-03-28T08:36:31.309Z,100297.30
2018-03-28T08:38:57.324Z,100291.20
2018-03-28T08:41:23.369Z,100293.09
2018-03-28T08:43:49.342Z,100285.27
2018-03-28T08:46:15.304Z,100280.64
2018-03-28T08:48:41.270Z,100277.66
2018-03-28T08:51:07.248Z,100272.56
2018-03-28T08:53:33.247Z,100270.89
2018-03-28T08:55:59.258Z,100270.73
2018-03-28T08:58:25.234Z,100267.13
2018-03-28T09:00:51.197Z,100264.06
2018-03-28T09:03:17.163Z,100267.01
2018-03-28T09:05:43.138Z,100262.33
2018-03-28T09:08:09.114Z,100264.66
2018-03-28T09:10:35.076Z,100265.70
2018-03-28T09:13:01.073Z,100262.03
2018-03-28T09:15:27.700Z,100261.62
2018-03-28T09:17:53.712Z,100256.12
2018-03-28T09:20:19.680Z,100253.56
2018-03-28T09:22:45.688Z,100257.19
2018-03-28T09:25:12.724Z,100252.95
2018-03-28T09:27:39.685Z,100245.83
2018-03-28T09:30:05.737Z,100242.30
2018-03-28T09:32:32.494Z,100239.87
2018-03-28T09:34:58.556Z,100236.21
2018-03-28T09:37:24.599Z,100235.86
2018-03-28T09:39:51.579Z,100240.09
2018-03-28T09:42:17.610Z,100238.91
2018-03-28T09:44:44.503Z,100235.25
2018-03-28T09:47:11.300Z,100231.50
2018-03-28T09:49:37.263Z,100221.38
2018-03-28T09:52:04.214Z,100226.64
2018-03-28T09:54:30.177Z,100226.52
2018-03-28T09:56:56.196Z,100221.69
2018-03-28T09:59:22.202Z,100218.50
2018-03-28T10:01:54.377Z,100214.20
2018-03-28T10:04:20.442Z,100218.51
2018-03-28T10:06:46.453Z,100219.16
2018-03-28T10:09:13.216Z,100222.52
2018-03-28T10:11:40.058Z,100225.08
2018-03-28T10:14:06.978Z,100217.19
2018-03-28T10:16:32.991Z,100217.25
2018-03-28T10:18:59.955Z,100218.08
2018-03-28T10:21:25.930Z,100219.46
2018-03-28T10:23:57.805Z,100218.98
2018-03-28T10:26:23.822Z,100223.67
2018-03-28T10:28:49.860Z,100220.59
2018-03-28T10:31:22.786Z,100222.26
2018-03-28T10:33:48.758Z,100221.78
2018-03-28T10:36:14.800Z,100215.68
2018-03-28T10:38:41.590Z,100217.25
2018-03-28T10:41:07.559Z,100217.19
2018-03-28T10:43:33.559Z,100213.56
2018-03-28T10:45:59.542Z,100208.53
2018-03-28T10:48:25.510Z,100207.80
2018-03-28T10:50:52.523Z,100209.23
2018-03-28T10:53:19.435Z,100209.06
2018-03-28T10:55:46.275Z,100202.78
2018-03-28T10:58:12.235Z,100197.35
2018-03-28T11:00:38.202Z,100193.39
2018-03-28T11:03:04.188Z,100191.97
2018-03-28T11:05:31.023Z,100187.84
2018-03-28T11:07:56.982Z,100191.17
2018-03-28T11:10:22.950Z,100184.87
2018-03-28T11:12:49.774Z,100192.97
2018-03-28T11:15:16.667Z,100192.63
2018-03-28T11:17:43.695Z,100183.90
2018-03-28T11:20:09.779Z,100192.08
2018-03-28T11:22:35.751Z,100175.45
2018-03-28T11:25:01.724Z,100190.69
2018-03-28T11:27:28.146Z,100176.30
2018-03-28T11:29:55.058Z,100173.05
2018-03-28T11:32:21.065Z,100173.17
2018-03-28T11:34:47.042Z,100187.30
2018-03-28T11:37:13.998Z,100184.53
2018-03-28T11:39:41.023Z,100179.78
2018-03-28T11:42:08.024Z,100178.69
2018-03-28T11:44:33.991Z,100177.56
2018-03-28T11:47:02.090Z,100180.72
2018-03-28T11:49:28.054Z,100170.97
2018-03-28T11:51:56.094Z,100164.64
2018-03-28T11:54:23.071Z,100176.70
2018-03-28T11:56:49.113Z,100168.84
2018-03-28T11:59:15.083Z,100165.05
2018-03-28T12:01:41.067Z,100164.75
2018-03-28T12:04:07.142Z,100166.02
2018-03-28T12:06:33.107Z,100160.21
2018-03-28T12:08:59.116Z,100160.62
2018-03-28T12:11:25.135Z,100161.59
2018-03-28T12:13:51.137Z,100160.95
2018-03-28T12:16:17.102Z,100161.11
2018-03-28T12:18:43.075Z,100160.31
2018-03-28T12:21:09.051Z,100164.94
2018-03-28T12:23:35.791Z,100163.91
2018-03-28T12:26:02.731Z,100165.13
2018-03-28T12:28:28.699Z,100154.48
2018-03-28T12:30:54.711Z,100153.14
2018-03-28T12:33:20.719Z,100157.77
2018-03-28T12:35:46.695Z,100155.78
2018-03-28T12:38:12.666Z,100152.55
2018-03-28T12:40:38.634Z,100162.17
2018-03-28T12:43:04.643Z,100152.21
2018-03-28T12:45:30.613Z,100151.18
2018-03-28T12:47:56.582Z,100145.20
2018-03-28T12:50:22.553Z,100142.73
2018-03-28T12:52:48.527Z,100136.13
2018-03-28T12:55:14.552Z,100131.40
2018-03-28T12:57:40.509Z,100137.20
2018-03-28T13:00:06.471Z,100137.55
2018-03-28T13:02:32.476Z,100135.17
2018-03-28T13:04:58.434Z,100141.48
2018-03-28T13:07:24.397Z,100137.48
2018-03-28T13:09:50.403Z,100137.31
2018-03-28T13:12:16.367Z,100145.09
2018-03-28T13:14:42.462Z,100138.34
2018-03-28T13:17:08.481Z,100134.09
2018-03-28T13:19:34.508Z,100129.05
2018-03-28T13:22:07.532Z,100130.73
2018-03-28T13:24:33.511Z,100128.34
2018-03-28T13:26:59.479Z,100125.00
2018-03-28T13:29:25.458Z,100128.41
2018-03-28T13:31:51.422Z,100126.02
2018-03-28T13:34:17.403Z,100122.39
2018-03-28T13:36:44.222Z,100109.27
2018-03-28T13:39:10.235Z,100110.75
2018-03-28T13:41:37.049Z,100126.30
2018-03-28T13:44:03.957Z,100117.23
2018-03-28T13:46:30.890Z,100110.88
2018-03-28T13:48:56.879Z,100100.55
2018-03-28T13:51:22.890Z,100091.41
2018-03-28T13:53:49.813Z,100090.39
2018-03-28T13:56:16.771Z,100090.39
2018-03-28T13:58:43.522Z,100080.87
2018-03-28T14:01:09.556Z,100082.06
2018-03-28T14:03:35.536Z,100079.92
2018-03-28T14:06:03.731Z,100073.70
2018-03-28T14:08:29.707Z,100060.95
2018-03-28T14:10:55.786Z,100065.94
2018-03-28T14:13:21.907Z,100060.06
2018-03-28T14:15:47.939Z,100059.70
2018-03-28T14:18:13.952Z,100048.37
2018-03-28T14:20:39.970Z,100051.91
2018-03-28T14:23:05.948Z,100049.06
2018-03-28T14:25:31.925Z,100038.33
2018-03-28T14:27:57.907Z,100034.39
2018-03-28T14:30:23.931Z,100025.36
2018-03-28T14:32:50.005Z,100022.12
2018-03-28T14:35:16.594Z,100025.80
2018-03-28T14:37:42.965Z,100018.19
2018-03-28T14:40:08.935Z,100021.30
2018-03-28T14:42:34.917Z,100030.34
2018-03-28T14:45:00.886Z,100029.56
2018-03-28T14:47:27.809Z,100032.86
2018-03-28T14:49:53.795Z,100030.73
2018-03-28T14:52:19.768Z,100022.63
2018-03-28T14:54:45.745Z,100022.52
2018-03-28T14:57:11.730Z,100016.89
2018-03-28T14:59:37.716Z,100022.20
2018-03-28T15:02:03.697Z,100020.69
2018-03-28T15:04:29.743Z,100016.20
2018-03-28T15:06:55.723Z,100008.87
2018-03-28T15:09:22.626Z,100010.58
2018-03-28T15:11:49.695Z,99998.67
2018-03-28T15:14:15.671Z,99986.92
2018-03-28T15:16:41.695Z,99988.38
2018-03-28T15:19:07.674Z,99976.71
2018-03-28T15:21:34.444Z,99976.70
2018-03-28T15:24:01.309Z,99987.11
2018-03-28T15:26:27.274Z,99986.67
2018-03-28T15:28:53.246Z,99989.34
2018-03-28T15:31:20.166Z,99981.39
2018-03-28T15:33:47.061Z,99982.56
2018-03-28T15:36:13.989Z,99972.66
2018-03-28T15:38:39.997Z,99960.33
2018-03-28T15:41:05.963Z,99955.03
2018-03-28T15:43:32.902Z,99955.03
2018-03-28T15:45:59.830Z,99955.28
2018-03-28T15:48:25.867Z,99958.66
2018-03-28T15:50:51.843Z,99968.28
2018-03-28T15:53:17.841Z,99967.25
2018-03-28T15:55:44.826Z,99957.38
2018-03-28T15:58:10.904Z,99963.67
2018-03-28T16:00:36.878Z,99955.38
2018-03-28T16:03:02.845Z,99952.45
2018-03-28T16:05:29.814Z,99952.05
2018-03-28T16:07:55.805Z,99952.91
2018-03-28T16:10:21.799Z,99948.02
2018-03-28T16:12:48.670Z,99943.36
2018-03-28T16:15:14.714Z,99946.27
2018-03-28T16:17:40.684Z,99945.11
2018-03-28T16:20:06.649Z,99938.19
2018-03-28T16:22:33.646Z,99928.18
2018-03-28T16:24:59.634Z,99925.30
2018-03-28T16:27:27.843Z,99920.98
2018-03-28T16:29:53.955Z,99914.38
2018-03-28T16:32:19.973Z,99912.88
2018-03-28T16:34:45.962Z,99912.44
2018-03-28T16:37:12.930Z,99910.80
2018-03-28T16:39:39.923Z,99903.77
2018-03-28T16:42:05.910Z,99899.80
2018-03-28T16:44:32.847Z,99902.18
2018-03-28T16:46:59.858Z,99888.69
2018-03-28T16:49:26.859Z,99887.96
2018-03-28T16:51:52.842Z,99871.69
2018-03-28T16:54:19.590Z,99874.25
2018-03-28T16:56:45.602Z,99866.92
2018-03-28T16:59:12.750Z,99869.55
2018-03-28T17:01:38.811Z,99871.48
2018-03-28T17:04:04.802Z,99862.11
2018-03-28T17:06:30.867Z,99861.55
2018-03-28T17:08:56.878Z,99852.83
2018-03-28T17:11:23.641Z,99860.13
2018-03-28T17:13:50.634Z,99853.88
2018-03-28T17:16:16.646Z,99849.86
2018-03-28T17:18:42.650Z,99838.50
2018-03-28T17:21:08.695Z,99844.73
2018-03-28T17:23:34.701Z,99832.72
2018-03-28T17:26:00.710Z,99824.56
2018-03-28T17:28:27.634Z,99822.31
2018-03-28T17:30:53.735Z,99826.64
2018-03-28T17:33:19.970Z,99818.09
2018-03-28T17:35:46.037Z,99815.81
2018-03-28T17:38:12.918Z,99823.01
2018-03-28T17:40:38.979Z,99831.52
2018-03-28T17:43:05.803Z,99830.69
2018-03-28T17:45:31.882Z,99833.48
2018-03-28T17:47:58.922Z,99834.63
2018-03-28T17:50:24.946Z,99832.59
2018-03-28T17:52:50.939Z,99829.62
2018-03-28T17:55:18.586Z,99821.20
2018-03-28T17:57:46.775Z,99822.00
2018-03-28T18:00:13.210Z,99809.38
2018-03-28T18:02:39.870Z,99803.90
2018-03-28T18:05:06.429Z,99798.50
2018-03-28T18:07:33.778Z,99792.38
2018-03-28T18:10:00.306Z,99780.72
2018-03-28T18:12:26.869Z,99772.80
2018-03-28T18:14:53.986Z,99770.91
2018-03-28T18:17:21.333Z,99772.41
2018-03-28T18:19:48.026Z,99770.89
2018-03-28T18:22:14.702Z,99766.84
2018-03-28T18:24:41.264Z,99763.50
2018-03-28T18:27:08.737Z,99765.37
2018-03-28T18:29:35.398Z,99756.46
2018-03-28T18:32:03.042Z,99756.93
2018-03-28T18:34:29.578Z,99738.59
2018-03-28T18:36:56.650Z,99724.10
2018-03-28T18:39:23.372Z,99708.08
2018-03-28T18:41:50.102Z,99708.16
2018-03-28T18:44:16.871Z,99714.18
2018-03-28T18:46:43.610Z,99707.33
2018-03-28T18:49:11.502Z,99705.45
2018-03-28T18:51:38.070Z,99701.70
2018-03-28T18:54:12.289Z,99696.80
2018-03-28T18:56:39.158Z,99695.08
2018-03-28T18:59:05.884Z,99688.02
2018-03-28T19:01:33.857Z,99689.06
2018-03-28T19:04:04.122Z,99687.16
2018-03-28T19:06:30.882Z,99684.69
2018-03-28T19:08:57.674Z,99700.03
2018-03-28T19:11:26.414Z,99700.91
2018-03-28T19:13:52.970Z,99704.84
2018-03-28T19:16:19.895Z,99700.38
2018-03-28T19:18:47.565Z,99698.78
2018-03-28T19:21:14.608Z,99705.48
2018-03-28T19:23:41.373Z,99709.34
2018-03-28T19:26:08.137Z,99709.68
2018-03-28T19:28:35.391Z,99711.89
2018-03-28T19:31:02.902Z,99704.37
2018-03-28T19:33:29.609Z,99699.62
2018-03-28T19:35:56.456Z,99696.58
2018-03-28T19:38:23.092Z,99688.01
2018-03-28T19:40:49.814Z,99677.61
2018-03-28T19:43:16.408Z,99671.86
2018-03-28T19:45:43.205Z,99666.69
2018-03-28T19:48:09.787Z,99651.36
2018-03-28T19:50:36.637Z,99642.97
2018-03-28T19:53:03.203Z,99632.88
2018-03-28T19:55:29.718Z,99633.49
2018-03-28T19:57:56.291Z,99633.85
2018-03-28T20:00:22.831Z,99630.02
2018-03-28T20:02:49.376Z,99633.19
2018-03-28T20:05:16.722Z,99631.16
2018-03-28T20:07:43.494Z,99633.71
2018-03-28T20:10:09.997Z,99630.27
2018-03-28T20:12:37.466Z,99633.14
2018-03-28T20:15:03.974Z,99623.02
2018-03-28T20:17:31.705Z,99611.93
2018-03-28T20:19:58.297Z,99602.21
2018-03-28T20:22:24.762Z,99595.27
2018-03-28T20:24:52.127Z,99596.26
2018-03-28T20:27:19.478Z,99590.88
2018-03-28T20:29:45.998Z,99598.11
2018-03-28T20:32:12.531Z,99596.44
2018-03-28T20:34:39.044Z,99585.34
2018-03-28T20:37:05.534Z,99580.30
2018-03-28T20:39:31.966Z,99574.13
2018-03-28T20:41:58.425Z,99570.33
2018-03-28T20:44:27.817Z,99562.83
2018-03-28T20:46:54.489Z,99542.89
2018-03-28T20:49:21.063Z,99550.41
2018-03-28T20:51:48.084Z,99542.39
2018-03-28T20:54:14.108Z,99545.84
2018-03-28T20:56:41.187Z,99539.80
2018-03-28T20:59:09.266Z,99529.08
2018-03-28T21:01:35.333Z,99520.46
2018-03-28T21:04:02.461Z,99511.08
2018-03-28T21:06:28.601Z,99509.06
2018-03-28T21:08:54.565Z,99500.98
2018-03-28T21:11:20.533Z,99502.42
2018-03-28T21:13:46.540Z,99499.31
2018-03-28T21:16:12.510Z,99491.27
2018-03-28T21:18:38.505Z,99487.73
2018-03-28T21:21:05.327Z,99487.28
2018-03-28T21:23:31.287Z,99480.02
2018-03-28T21:25:57.331Z,99470.96
2018-03-28T21:28:23.298Z,99473.56
2018-03-28T21:30:49.258Z,99472.61
2018-03-28T21:33:15.282Z,99465.26
2018-03-28T21:35:41.250Z,99468.37
2018-03-28T21:38:07.214Z,99461.05
2018-03-28T21:40:33.184Z,99457.81
2018-03-28T21:42:59.141Z,99451.16
2018-03-28T21:45:25.194Z,99444.92
2018-03-28T21:47:51.325Z,99447.70
2018-03-28T21:50:17.287Z,99428.50
2018-03-28T21:52:43.376Z,99433.65
2018-03-28T21:55:09.338Z,99423.47
2018-03-28T21:57:35.302Z,99418.06
2018-03-28T22:00:01.301Z,99405.62
2018-03-28T22:02:27.270Z,99391.20
2018-03-28T22:04:53.284Z,99388.88
2018-03-28T22:07:19.249Z,99380.92
2018-03-28T22:09:45.223Z,99390.72
2018-03-28T22:12:11.193Z,99392.09
2018-03-28T22:14:37.163Z,99386.50
2018-03-28T22:17:03.129Z,99386.77
2018-03-28T22:19:29.100Z,99384.26
2018-03-28T22:21:55.109Z,99384.51
2018-03-28T22:24:22.122Z,99370.48
2018-03-28T22:26:49.090Z,99363.59
2018-03-28T22:29:15.066Z,99362.73
2018-03-28T22:31:41.036Z,99357.77
2018-03-28T22:34:07.014Z,99346.42
2018-03-28T22:36:33.022Z,99350.17
2018-03-28T22:38:58.996Z,99345.34
2018-03-28T22:41:25.801Z,99343.19
2018-03-28T22:43:51.768Z,99343.60
2018-03-28T22:46:17.733Z,99344.77
2018-03-28T22:48:43.750Z,99341.72
2018-03-28T22:51:10.522Z,99348.58
2018-03-28T22:53:37.327Z,99346.64
2018-03-28T22:56:03.297Z,99340.69
2018-03-28T22:58:30.059Z,99340.39
2018-03-28T23:00:56.028Z,99340.41
2018-03-28T23:03:21.993Z,99347.38
2018-03-28T23:05:47.962Z,99330.87
2018-03-28T23:08:13.922Z,99331.77
2018-03-28T23:10:39.901Z,99323.64
2018-03-28T23:13:05.875Z,99322.48
2018-03-28T23:15:31.874Z,99314.74
2018-03-28T23:17:57.885Z,99307.35
2018-03-28T23:20:23.982Z,99302.36
2018-03-28T23:22:49.955Z,99295.55
2018-03-28T23:25:15.923Z,99298.41
2018-03-28T23:27:41.886Z,99296.66
2018-03-28T23:30:07.845Z,99291.01
2018-03-28T23:32:34.671Z,99286.97
2018-03-28T23:35:00.639Z,99288.15
2018-03-28T23:37:26.619Z,99277.70
2018-03-28T23:39:52.588Z,99267.52
2018-03-28T23:42:18.581Z,99265.19
2018-03-28T23:44:44.573Z,99264.69
2018-03-28T23:47:11.312Z,99267.48
2018-03-28T23:49:38.322Z,99259.17
2018-03-28T23:52:05.222Z,99257.91
2018-03-28T23:54:31.187Z,99251.07
2018-03-28T23:56:57.195Z,99236.95
2018-03-28T23:59:23.159Z,99239.84
